Time,TemperatureF,DewpointF,PressureIn,WindDirection,WindDirectionDegrees,WindSpeedMPH,WindSpeedGustMPH,Humidity,HourlyPrecipIn,Conditions,Clouds,dailyrainin,SoftwareType,DateUTC
2013-01-12 00:04:00,61.3,51.4,29.76,WNW,291,2.0,4.0,70,0.00,,,0.00,Wunderground v.1.15,2013-01-12 06:04:00,
2013-01-12 00:10:00,61.4,51.1,29.75,WSW,248,2.0,2.0,69,0.00,,,0.00,Wunderground v.1.15,2013-01-12 06:10:00,
2013-01-12 00:16:00,61.4,51.1,29.75,West,263,1.0,2.0,69,0.00,,,0.00,Wunderground v.1.15,2013-01-12 06:16:00,
2013-01-12 00:22:00,61.3,51.0,29.74,West,264,0.0,3.0,69,0.00,,,0.00,Wunderground v.1.15,2013-01-12 06:22:00,
2013-01-12 00:28:00,61.3,51.0,29.74,West,261,1.0,3.0,69,0.00,,,0.00,Wunderground v.1.15,2013-01-12 06:28:00,
2013-01-12 00:34:00,61.2,51.3,29.76,West,260,1.0,1.0,70,0.00,,,0.00,Wunderground v.1.15,2013-01-12 06:34:00,
2013-01-12 00:40:00,61.3,51.4,29.76,West,269,1.0,1.0,70,0.00,,,0.00,Wunderground v.1.15,2013-01-12 06:40:00,
2013-01-12 00:46:00,61.4,51.5,29.77,West,267,2.0,3.0,70,0.00,,,0.00,Wunderground v.1.15,2013-01-12 06:46:00,
2013-01-12 00:52:00,61.4,51.5,29.76,West,267,1.0,2.0,70,0.00,,,0.00,Wunderground v.1.15,2013-01-12 06:52:00,
2013-01-12 00:58:00,61.3,51.4,29.77,West,271,1.0,3.0,70,0.00,,,0.00,Wunderground v.1.15,2013-01-12 06:58:00,
2013-01-12 01:06:00,61.2,49.3,29.77,WNW,302,3.0,5.0,65,0.00,,,0.00,Wunderground v.1.15,2013-01-12 07:06:00,
2013-01-12 01:12:00,61.1,45.3,29.77,NNW,342,3.0,3.0,56,0.00,,,0.00,Wunderground v.1.15,2013-01-12 07:12:00,
2013-01-12 01:18:00,61.1,43.8,29.77,NNW,342,3.0,3.0,53,0.00,,,0.00,Wunderground v.1.15,2013-01-12 07:18:00,
2013-01-12 01:24:00,61.1,43.3,29.77,NNW,340,2.0,3.0,52,0.00,,,0.00,Wunderground v.1.15,2013-01-12 07:24:00,
2013-01-12 01:30:00,60.8,39.9,29.77,NNW,332,2.0,5.0,46,0.00,,,0.00,Wunderground v.1.15,2013-01-12 07:30:00,
2013-01-12 01:36:00,60.5,39.0,29.78,NNW,331,3.0,5.0,45,0.00,,,0.00,Wunderground v.1.15,2013-01-12 07:36:00,
2013-01-12 01:42:00,60.3,37.1,29.79,NNW,331,2.0,3.0,42,0.00,,,0.00,Wunderground v.1.15,2013-01-12 07:42:00,
2013-01-12 01:48:00,60.0,35.6,29.79,NNW,334,2.0,3.0,40,0.00,,,0.00,Wunderground v.1.15,2013-01-12 07:48:00,
2013-01-12 01:54:00,59.8,36.0,29.79,NNW,334,1.0,2.0,41,0.00,,,0.00,Wunderground v.1.15,2013-01-12 07:54:00,
2013-01-12 02:00:00,59.6,35.2,29.79,NNW,336,1.0,2.0,40,0.00,,,0.00,Wunderground v.1.15,2013-01-12 08:00:00,
2013-01-12 02:06:00,59.3,35.0,29.79,NNW,336,1.0,2.0,40,0.00,,,0.00,Wunderground v.1.15,2013-01-12 08:06:00,
2013-01-12 02:12:00,59.0,32.1,29.80,NNW,338,1.0,1.0,36,0.00,,,0.00,Wunderground v.1.15,2013-01-12 08:12:00,
2013-01-12 02:18:00,59.0,30.6,29.79,NNW,327,2.0,2.0,34,0.00,,,0.00,Wunderground v.1.15,2013-01-12 08:18:00,
2013-01-12 02:24:00,59.0,29.9,29.79,NNW,342,3.0,3.0,33,0.00,,,0.00,Wunderground v.1.15,2013-01-12 08:24:00,
2013-01-12 02:30:00,58.6,29.6,29.80,NNW,342,1.0,1.0,33,0.00,,,0.00,Wunderground v.1.15,2013-01-12 08:30:00,
2013-01-12 02:36:00,58.3,29.3,29.80,NNW,340,1.0,3.0,33,0.00,,,0.00,Wunderground v.1.15,2013-01-12 08:36:00,
2013-01-12 02:42:00,58.1,28.4,29.81,NW,318,3.0,3.0,32,0.00,,,0.00,Wunderground v.1.15,2013-01-12 08:42:00,
2013-01-12 02:48:00,58.1,27.6,29.80,NNE,14,5.0,7.0,31,0.00,,,0.00,Wunderground v.1.15,2013-01-12 08:48:00,
2013-01-12 02:54:00,57.9,28.2,29.80,North,355,5.0,6.0,32,0.00,,,0.00,Wunderground v.1.15,2013-01-12 08:54:00,
2013-01-12 03:00:00,57.5,28.6,29.80,NNW,340,4.0,4.0,33,0.00,,,0.00,Wunderground v.1.15,2013-01-12 09:00:00,
2013-01-12 03:06:00,57.1,29.0,29.79,NNW,347,3.0,4.0,34,0.00,,,0.00,Wunderground v.1.15,2013-01-12 09:06:00,
2013-01-12 03:12:00,56.7,29.3,29.80,NNW,344,3.0,5.0,35,0.00,,,0.00,Wunderground v.1.15,2013-01-12 09:12:00,
2013-01-12 03:24:00,56.1,29.5,29.80,North,355,4.0,4.0,36,0.00,,,0.00,Wunderground v.1.15,2013-01-12 09:24:00,
2013-01-12 03:30:00,55.7,29.8,29.80,NW,325,4.0,9.0,37,0.00,,,0.00,Wunderground v.1.15,2013-01-12 09:30:00,
2013-01-12 03:36:00,55.5,29.6,29.80,NNE,26,4.0,5.0,37,0.00,,,0.00,Wunderground v.1.15,2013-01-12 09:36:00,
2013-01-12 03:42:00,55.2,30.0,29.80,NNE,21,4.0,6.0,38,0.00,,,0.00,Wunderground v.1.15,2013-01-12 09:42:00,
2013-01-12 03:48:00,55.0,29.8,29.80,North,355,3.0,6.0,38,0.00,,,0.00,Wunderground v.1.15,2013-01-12 09:48:00,
2013-01-12 03:54:00,54.8,29.7,29.79,North,350,3.0,4.0,38,0.00,,,0.00,Wunderground v.1.15,2013-01-12 09:54:00,
2013-01-12 04:00:00,54.5,29.4,29.79,North,355,4.0,10.0,38,0.00,,,0.00,Wunderground v.1.15,2013-01-12 10:00:00,
2013-01-12 04:06:00,54.2,29.1,29.79,North,11,5.0,10.0,38,0.00,,,0.00,Wunderground v.1.15,2013-01-12 10:06:00,
2013-01-12 04:12:00,54.0,28.9,29.80,NNE,17,5.0,9.0,38,0.00,,,0.00,Wunderground v.1.15,2013-01-12 10:12:00,
2013-01-12 04:24:00,53.6,29.2,29.80,North,360,4.0,9.0,39,0.00,,,0.00,Wunderground v.1.15,2013-01-12 10:24:00,
2013-01-12 04:30:00,53.4,29.0,29.80,NNE,22,5.0,9.0,39,0.00,,,0.00,Wunderground v.1.15,2013-01-12 10:30:00,
2013-01-12 04:36:00,53.2,28.9,29.80,NNE,18,5.0,6.0,39,0.00,,,0.00,Wunderground v.1.15,2013-01-12 10:36:00,
2013-01-12 04:42:00,53.0,28.7,29.79,NNE,20,5.0,6.0,39,0.00,,,0.00,Wunderground v.1.15,2013-01-12 10:42:00,
2013-01-12 04:48:00,52.5,27.6,29.80,NNE,28,8.0,9.0,38,0.00,,,0.00,Wunderground v.1.15,2013-01-12 10:48:00,
2013-01-12 04:54:00,52.2,28.6,29.79,NE,37,9.0,9.0,40,0.00,,,0.00,Wunderground v.1.15,2013-01-12 10:54:00,
2013-01-12 05:00:00,51.8,28.8,29.79,NNE,17,7.0,7.0,41,0.00,,,0.00,Wunderground v.1.15,2013-01-12 11:00:00,
2013-01-12 05:06:00,51.4,29.1,29.79,NNE,14,8.0,16.0,42,0.00,,,0.00,Wunderground v.1.15,2013-01-12 11:06:00,
2013-01-12 05:12:00,50.9,29.7,29.80,NNE,22,9.0,13.0,44,0.00,,,0.00,Wunderground v.1.15,2013-01-12 11:12:00,
2013-01-12 05:20:00,50.3,29.7,29.79,NNW,344,10.0,10.0,45,0.00,,,0.00,Wunderground v.1.15,2013-01-12 11:20:00,
2013-01-12 05:26:00,49.9,29.9,29.79,NNE,29,10.0,16.0,46,0.00,,,0.00,Wunderground v.1.15,2013-01-12 11:26:00,
2013-01-12 05:32:00,49.4,30.5,29.78,NE,40,11.0,11.0,48,0.00,,,0.00,Wunderground v.1.15,2013-01-12 11:32:00,
2013-01-12 05:38:00,48.9,31.5,29.79,NNE,32,11.0,16.0,51,0.00,,,0.00,Wunderground v.1.15,2013-01-12 11:38:00,
2013-01-12 05:44:00,48.3,31.9,29.80,NNE,25,11.0,23.0,53,0.00,,,0.00,Wunderground v.1.15,2013-01-12 11:44:00,
2013-01-12 05:50:00,47.7,32.8,29.82,NNE,24,10.0,17.0,56,0.00,,,0.00,Wunderground v.1.15,2013-01-12 11:50:00,
2013-01-12 05:56:00,47.1,33.1,29.83,NE,37,9.0,17.0,58,0.00,,,0.00,Wunderground v.1.15,2013-01-12 11:56:00,
2013-01-12 06:02:00,46.3,32.3,29.84,NW,319,9.0,9.0,58,0.00,,,0.00,Wunderground v.1.15,2013-01-12 12:02:00,
2013-01-12 06:08:00,45.8,32.7,29.86,NNE,19,7.0,9.0,60,0.00,,,0.00,Wunderground v.1.15,2013-01-12 12:08:00,
2013-01-12 06:14:00,45.4,32.7,29.87,NE,39,7.0,7.0,61,0.00,,,0.00,Wunderground v.1.15,2013-01-12 12:14:00,
2013-01-12 06:20:00,45.2,32.9,29.88,North,360,7.0,7.0,62,0.00,,,0.00,Wunderground v.1.15,2013-01-12 12:20:00,
2013-01-12 06:26:00,45.0,33.2,29.88,North,360,6.0,13.0,63,0.00,,,0.00,Wunderground v.1.15,2013-01-12 12:26:00,
2013-01-12 06:32:00,44.7,33.3,29.88,NNE,17,7.0,12.0,64,0.00,,,0.00,Wunderground v.1.15,2013-01-12 12:32:00,
2013-01-12 06:38:00,44.7,33.3,29.88,NNE,17,12.0,12.0,64,0.00,,,0.00,Wunderground v.1.15,2013-01-12 12:38:00,
2013-01-12 06:44:00,-999.9,-99.9,29.88,North,32767,-999.0,0.0,255,-99.99,,,0.00,Wunderground v.1.15,2013-01-12 12:44:00,
2013-01-12 06:50:00,-999.9,-99.9,29.88,North,32767,-999.0,0.0,255,-99.99,,,0.00,Wunderground v.1.15,2013-01-12 12:50:00,
2013-01-12 06:56:00,-999.9,-99.9,29.87,North,32767,-999.0,0.0,255,-99.99,,,0.00,Wunderground v.1.15,2013-01-12 12:56:00,
2013-01-12 07:02:00,-999.9,-99.9,29.88,North,32767,-999.0,0.0,255,-99.99,,,0.00,Wunderground v.1.15,2013-01-12 13:02:00,
2013-01-12 07:08:00,-999.9,-99.9,29.88,North,32767,-999.0,0.0,255,-99.99,,,0.00,Wunderground v.1.15,2013-01-12 13:08:00,
2013-01-12 07:20:00,-999.9,-99.9,29.87,North,32767,-999.0,0.0,255,-99.99,,,0.00,Wunderground v.1.15,2013-01-12 13:20:00,
2013-01-12 07:26:00,-999.9,-99.9,29.89,North,32767,-999.0,0.0,255,-99.99,,,0.00,Wunderground v.1.15,2013-01-12 13:26:00,
2013-01-12 07:32:00,40.4,31.0,29.90,North,9,6.0,12.0,69,0.00,,,0.00,Wunderground v.1.15,2013-01-12 13:32:00,
2013-01-12 07:38:00,40.3,31.3,29.91,North,9,9.0,12.0,70,0.00,,,0.00,Wunderground v.1.15,2013-01-12 13:38:00,
2013-01-12 07:44:00,40.3,31.3,29.92,North,11,8.0,13.0,70,0.00,,,0.00,Wunderground v.1.15,2013-01-12 13:44:00,
2013-01-12 07:50:00,40.3,31.6,29.92,North,355,8.0,13.0,71,0.00,,,0.00,Wunderground v.1.15,2013-01-12 13:50:00,
2013-01-12 07:56:00,40.2,31.5,29.92,NNE,28,8.0,13.0,71,0.00,,,0.00,Wunderground v.1.15,2013-01-12 13:56:00,
2013-01-12 08:02:00,40.1,31.4,29.92,NNE,13,9.0,14.0,71,0.00,,,0.00,Wunderground v.1.15,2013-01-12 14:02:00,
2013-01-12 08:08:00,40.0,31.4,29.91,NNE,22,9.0,14.0,71,0.00,,,0.00,Wunderground v.1.15,2013-01-12 14:08:00,
2013-01-12 08:14:00,39.9,31.3,29.90,NNE,19,10.0,10.0,71,0.00,,,0.00,Wunderground v.1.15,2013-01-12 14:14:00,
2013-01-12 08:20:00,39.7,31.1,29.90,NNE,19,12.0,15.0,71,0.00,,,0.00,Wunderground v.1.15,2013-01-12 14:20:00,
2013-01-12 08:26:00,39.7,31.1,29.91,North,360,12.0,15.0,71,0.00,,,0.00,Wunderground v.1.15,2013-01-12 14:26:00,
2013-01-12 08:32:00,39.7,31.1,29.92,ENE,78,11.0,11.0,71,0.00,,,0.00,Wunderground v.1.15,2013-01-12 14:32:00,
2013-01-12 08:38:00,39.5,30.9,29.92,NNE,25,12.0,15.0,71,0.00,,,0.00,Wunderground v.1.15,2013-01-12 14:38:00,
2013-01-12 08:44:00,39.6,31.0,29.92,NNE,12,9.0,12.0,71,0.00,,,0.00,Wunderground v.1.15,2013-01-12 14:44:00,
2013-01-12 08:50:00,39.4,30.8,29.93,NNE,26,9.0,10.0,71,0.00,,,0.00,Wunderground v.1.15,2013-01-12 14:50:00,
2013-01-12 08:56:00,39.2,30.6,29.92,NE,35,11.0,15.0,71,0.00,,,0.00,Wunderground v.1.15,2013-01-12 14:56:00,
2013-01-12 09:02:00,39.1,30.8,29.92,NNE,15,11.0,12.0,72,0.00,,,0.00,Wunderground v.1.15,2013-01-12 15:02:00,
2013-01-12 09:08:00,39.1,30.8,29.92,NNE,24,9.0,15.0,72,0.00,,,0.00,Wunderground v.1.15,2013-01-12 15:08:00,
2013-01-12 09:14:00,39.1,29.8,29.92,NNE,16,8.0,12.0,69,0.00,,,0.00,Wunderground v.1.15,2013-01-12 15:14:00,
2013-01-12 09:20:00,39.3,29.6,29.92,NE,40,7.0,7.0,68,0.00,,,0.00,Wunderground v.1.15,2013-01-12 15:20:00,
2013-01-12 09:26:00,39.3,29.3,29.91,ENE,66,7.0,8.0,67,0.00,,,0.00,Wunderground v.1.15,2013-01-12 15:26:00,
2013-01-12 09:32:00,38.9,28.5,29.90,NE,49,9.0,12.0,66,0.00,,,0.00,Wunderground v.1.15,2013-01-12 15:32:00,
2013-01-12 09:38:00,38.7,28.7,29.90,NE,38,10.0,14.0,67,0.00,,,0.00,Wunderground v.1.15,2013-01-12 15:38:00,
2013-01-12 09:44:00,38.7,28.7,29.90,NNE,28,9.0,11.0,67,0.00,,,0.00,Wunderground v.1.15,2013-01-12 15:44:00,
2013-01-12 09:50:00,38.6,28.9,29.91,NNE,13,11.0,11.0,68,0.00,,,0.00,Wunderground v.1.15,2013-01-12 15:50:00,
2013-01-12 09:56:00,38.3,29.0,29.91,North,10,10.0,17.0,69,0.00,,,0.00,Wunderground v.1.15,2013-01-12 15:56:00,
2013-01-12 10:02:00,38.0,28.7,29.91,ENE,60,12.0,14.0,69,0.00,,,0.00,Wunderground v.1.15,2013-01-12 16:02:00,
2013-01-12 10:08:00,38.1,28.5,29.92,ENE,59,10.0,14.0,68,0.00,,,0.00,Wunderground v.1.15,2013-01-12 16:08:00,
2013-01-12 10:14:00,38.1,27.7,29.92,NE,39,8.0,11.0,66,0.00,,,0.00,Wunderground v.1.15,2013-01-12 16:14:00,
2013-01-12 10:20:00,38.0,27.3,29.92,NNE,16,9.0,12.0,65,0.00,,,0.00,Wunderground v.1.15,2013-01-12 16:20:00,
2013-01-12 10:26:00,37.9,26.8,29.93,NNE,25,10.0,19.0,64,0.00,,,0.00,Wunderground v.1.15,2013-01-12 16:26:00,
2013-01-12 10:32:00,37.9,26.8,29.93,NNE,28,10.0,10.0,64,0.00,,,0.00,Wunderground v.1.15,2013-01-12 16:32:00,
2013-01-12 10:38:00,37.9,26.4,29.94,NNE,19,8.0,10.0,63,0.00,,,0.00,Wunderground v.1.15,2013-01-12 16:38:00,
2013-01-12 10:44:00,37.6,25.4,29.94,North,360,8.0,12.0,61,0.00,,,0.00,Wunderground v.1.15,2013-01-12 16:44:00,
2013-01-12 10:50:00,37.3,25.1,29.93,NNE,19,9.0,9.0,61,0.00,,,0.00,Wunderground v.1.15,2013-01-12 16:50:00,
2013-01-12 10:56:00,36.9,24.7,29.90,North,11,10.0,14.0,61,0.00,,,0.00,Wunderground v.1.15,2013-01-12 16:56:00,
2013-01-12 11:02:00,36.4,25.0,29.90,NNE,22,11.0,17.0,63,0.00,,,0.00,Wunderground v.1.15,2013-01-12 17:02:00,
2013-01-12 11:08:00,36.5,25.1,29.91,NNE,19,8.0,17.0,63,0.00,,,0.00,Wunderground v.1.15,2013-01-12 17:08:00,
2013-01-12 11:14:00,36.5,25.1,29.90,NNE,25,6.0,14.0,63,0.00,,,0.00,Wunderground v.1.15,2013-01-12 17:14:00,
2013-01-12 11:20:00,36.3,24.9,29.90,NE,53,7.0,7.0,63,0.00,,,0.00,Wunderground v.1.15,2013-01-12 17:20:00,
2013-01-12 11:26:00,36.1,25.1,29.90,NE,40,9.0,14.0,64,0.00,,,0.00,Wunderground v.1.15,2013-01-12 17:26:00,
2013-01-12 11:32:00,36.0,25.0,29.90,NNE,18,10.0,12.0,64,0.00,,,0.00,Wunderground v.1.15,2013-01-12 17:32:00,
2013-01-12 11:38:00,35.8,24.8,29.90,NE,45,10.0,12.0,64,0.00,,,0.00,Wunderground v.1.15,2013-01-12 17:38:00,
2013-01-12 11:44:00,35.9,25.3,29.90,ENE,69,8.0,10.0,65,0.00,,,0.00,Wunderground v.1.15,2013-01-12 17:44:00,
2013-01-12 11:50:00,36.1,25.1,29.88,NE,53,7.0,7.0,64,0.00,,,0.00,Wunderground v.1.15,2013-01-12 17:50:00,
2013-01-12 11:56:00,36.0,25.0,29.88,NNE,22,7.0,7.0,64,0.00,,,0.00,Wunderground v.1.15,2013-01-12 17:56:00,
2013-01-12 12:02:00,36.1,25.5,29.89,North,11,8.0,13.0,65,0.00,,,0.00,Wunderground v.1.15,2013-01-12 18:02:00,
2013-01-12 12:08:00,35.9,24.9,29.88,NE,35,11.0,14.0,64,0.00,,,0.00,Wunderground v.1.15,2013-01-12 18:08:00,
2013-01-12 12:14:00,35.8,25.2,29.88,NNE,22,10.0,11.0,65,0.00,,,0.00,Wunderground v.1.15,2013-01-12 18:14:00,
2013-01-12 12:20:00,35.9,25.3,29.86,ENE,71,8.0,8.0,65,0.00,,,0.00,Wunderground v.1.15,2013-01-12 18:20:00,
2013-01-12 12:26:00,35.8,25.2,29.82,North,355,9.0,13.0,65,0.00,,,0.00,Wunderground v.1.15,2013-01-12 18:26:00,
2013-01-12 12:32:00,35.7,25.1,29.83,East,81,9.0,12.0,65,0.00,,,0.00,Wunderground v.1.15,2013-01-12 18:32:00,
2013-01-12 12:38:00,35.7,25.4,29.82,ENE,64,9.0,12.0,66,0.00,,,0.00,Wunderground v.1.15,2013-01-12 18:38:00,
2013-01-12 12:44:00,35.8,25.5,29.82,NNE,31,8.0,9.0,66,0.00,,,0.00,Wunderground v.1.15,2013-01-12 18:44:00,
2013-01-12 12:50:00,35.9,26.0,29.84,North,360,7.0,7.0,67,0.00,,,0.00,Wunderground v.1.15,2013-01-12 18:50:00,
2013-01-12 12:56:00,36.1,25.8,29.87,NNE,32,7.0,12.0,66,0.00,,,0.00,Wunderground v.1.15,2013-01-12 18:56:00,
2013-01-12 13:02:00,36.1,25.8,29.87,NNE,19,7.0,9.0,66,0.00,,,0.00,Wunderground v.1.15,2013-01-12 19:02:00,
2013-01-12 13:08:00,36.2,25.9,29.87,North,9,6.0,9.0,66,0.00,,,0.00,Wunderground v.1.15,2013-01-12 19:08:00,
2013-01-12 13:14:00,36.1,25.5,29.86,NNE,19,7.0,12.0,65,0.00,,,0.00,Wunderground v.1.15,2013-01-12 19:14:00,
2013-01-12 13:20:00,35.9,25.3,29.86,NE,34,9.0,9.0,65,0.00,,,0.00,Wunderground v.1.15,2013-01-12 19:20:00,
2013-01-12 13:26:00,35.8,25.5,29.84,NNW,335,8.0,11.0,66,0.00,,,0.00,Wunderground v.1.15,2013-01-12 19:26:00,
2013-01-12 13:32:00,35.7,26.2,29.84,North,11,9.0,11.0,68,0.00,,,0.00,Wunderground v.1.15,2013-01-12 19:32:00,
2013-01-12 13:38:00,35.5,26.3,29.84,North,360,9.0,11.0,69,0.00,,,0.00,Wunderground v.1.15,2013-01-12 19:38:00,
2013-01-12 13:44:00,35.2,26.4,29.83,NNE,29,10.0,12.0,70,0.00,,,0.00,Wunderground v.1.15,2013-01-12 19:44:00,
2013-01-12 13:50:00,34.6,26.5,29.84,ENE,61,9.0,9.0,72,0.00,,,0.01,Wunderground v.1.15,2013-01-12 19:50:00,
2013-01-12 13:56:00,34.2,27.1,29.83,NE,36,8.0,16.0,75,0.27,,,0.03,Wunderground v.1.15,2013-01-12 19:56:00,
2013-01-12 14:02:00,33.7,27.6,29.82,North,355,7.0,17.0,78,0.28,,,0.07,Wunderground v.1.15,2013-01-12 20:02:00,
2013-01-12 14:14:00,32.8,27.6,29.84,NNE,22,9.0,16.0,81,0.18,,,0.10,Wunderground v.1.15,2013-01-12 20:14:00,
2013-01-12 14:20:00,32.7,27.8,29.83,NNE,27,9.0,16.0,82,0.49,,,0.14,Wunderground v.1.15,2013-01-12 20:20:00,
2013-01-12 14:26:00,32.5,27.9,29.88,NNE,25,8.0,9.0,83,0.29,,,0.17,Wunderground v.1.15,2013-01-12 20:26:00,
2013-01-12 14:32:00,32.3,27.4,29.82,East,95,8.0,15.0,82,0.15,,,0.18,Wunderground v.1.15,2013-01-12 20:32:00,
2013-01-12 14:38:00,32.3,27.7,29.82,NNE,33,7.0,8.0,83,0.18,,,0.20,Wunderground v.1.15,2013-01-12 20:38:00,
2013-01-12 14:44:00,32.3,27.7,29.87,NNE,13,1.0,1.0,83,0.11,,,0.21,Wunderground v.1.15,2013-01-12 20:44:00,
2013-01-12 14:50:00,32.4,27.8,29.89,NNE,13,0.0,1.0,83,0.07,,,0.21,Wunderground v.1.15,2013-01-12 20:50:00,
2013-01-12 14:56:00,32.5,27.6,29.89,NNE,13,0.0,0.0,82,0.53,,,0.23,Wunderground v.1.15,2013-01-12 20:56:00,
2013-01-12 15:02:00,32.4,27.2,29.88,NNE,13,0.0,0.0,81,0.19,,,0.25,Wunderground v.1.15,2013-01-12 21:02:00,
2013-01-12 15:08:00,32.2,27.0,29.88,NNE,13,0.0,0.0,81,0.11,,,0.27,Wunderground v.1.15,2013-01-12 21:08:00,
2013-01-12 15:14:00,32.2,27.6,29.88,NNE,13,0.0,0.0,83,0.11,,,0.27,Wunderground v.1.15,2013-01-12 21:14:00,
2013-01-12 15:20:00,31.8,26.9,29.81,NNE,13,0.0,0.0,82,0.08,,,0.28,Wunderground v.1.15,2013-01-12 21:20:00,
2013-01-12 15:26:00,31.8,27.5,29.83,NNE,13,0.0,0.0,84,0.09,,,0.29,Wunderground v.1.15,2013-01-12 21:26:00,
2013-01-12 15:32:00,31.7,27.4,29.87,NNE,13,0.0,0.0,84,0.06,,,0.29,Wunderground v.1.15,2013-01-12 21:32:00,
2013-01-12 15:38:00,31.2,26.6,29.86,NNE,13,0.0,0.0,83,0.04,,,0.29,Wunderground v.1.15,2013-01-12 21:38:00,
2013-01-12 15:44:00,31.0,26.4,29.87,NNE,13,0.0,0.0,83,0.00,,,0.29,Wunderground v.1.15,2013-01-12 21:44:00,
2013-01-12 15:50:00,30.9,26.3,29.87,NNE,13,0.0,0.0,83,0.00,,,0.29,Wunderground v.1.15,2013-01-12 21:50:00,
2013-01-12 15:56:00,31.0,26.4,29.87,NNE,13,0.0,0.0,83,0.00,,,0.29,Wunderground v.1.15,2013-01-12 21:56:00,
2013-01-12 16:02:00,30.9,26.3,29.87,NNE,13,0.0,0.0,83,0.00,,,0.29,Wunderground v.1.15,2013-01-12 22:02:00,
2013-01-12 16:08:00,31.0,26.7,29.87,NNE,13,0.0,0.0,84,0.00,,,0.29,Wunderground v.1.15,2013-01-12 22:08:00,
2013-01-12 16:14:00,30.9,26.6,29.88,NNE,13,0.0,0.0,84,0.00,,,0.29,Wunderground v.1.15,2013-01-12 22:14:00,
2013-01-12 16:20:00,30.8,26.2,29.87,NNE,13,0.0,0.0,83,0.00,,,0.29,Wunderground v.1.15,2013-01-12 22:20:00,
2013-01-12 16:26:00,30.8,26.5,29.87,NNE,13,0.0,0.0,84,0.00,,,0.29,Wunderground v.1.15,2013-01-12 22:26:00,
2013-01-12 16:32:00,30.8,26.2,29.90,NNE,13,0.0,0.0,83,0.00,,,0.29,Wunderground v.1.15,2013-01-12 22:32:00,
2013-01-12 16:38:00,30.8,26.2,29.89,NNE,13,0.0,0.0,83,0.00,,,0.29,Wunderground v.1.15,2013-01-12 22:38:00,
2013-01-12 16:44:00,30.8,26.2,29.89,NNE,13,0.0,0.0,83,0.00,,,0.29,Wunderground v.1.15,2013-01-12 22:44:00,
2013-01-12 16:50:00,30.7,26.1,29.89,NNE,13,0.0,0.0,83,0.00,,,0.29,Wunderground v.1.15,2013-01-12 22:50:00,
2013-01-12 16:56:00,30.6,26.1,29.88,NNE,13,0.0,0.0,83,0.00,,,0.29,Wunderground v.1.15,2013-01-12 22:56:00,
2013-01-12 17:02:00,30.5,26.2,29.91,NNE,13,0.0,0.0,84,0.00,,,0.29,Wunderground v.1.15,2013-01-12 23:02:00,
2013-01-12 17:08:00,30.6,26.3,29.90,NNE,13,0.0,0.0,84,0.00,,,0.29,Wunderground v.1.15,2013-01-12 23:08:00,
2013-01-12 17:14:00,30.5,26.2,29.90,NNE,13,0.0,0.0,84,0.00,,,0.29,Wunderground v.1.15,2013-01-12 23:14:00,
2013-01-12 17:20:00,30.5,26.5,29.88,NNE,13,0.0,0.0,85,0.00,,,0.29,Wunderground v.1.15,2013-01-12 23:20:00,
2013-01-12 17:26:00,30.3,26.3,29.86,NNE,13,0.0,0.0,85,0.00,,,0.29,Wunderground v.1.15,2013-01-12 23:26:00,
2013-01-12 17:32:00,29.8,25.6,29.88,NNE,13,0.0,0.0,84,0.00,,,0.29,Wunderground v.1.15,2013-01-12 23:32:00,
2013-01-12 17:38:00,29.7,25.7,29.91,NNE,13,0.0,0.0,85,0.00,,,0.29,Wunderground v.1.15,2013-01-12 23:38:00,
2013-01-12 17:44:00,29.7,25.7,29.91,NNE,13,0.0,0.0,85,0.00,,,0.29,Wunderground v.1.15,2013-01-12 23:44:00,
2013-01-12 17:50:00,29.7,26.0,29.90,NNE,13,0.0,0.0,86,0.00,,,0.29,Wunderground v.1.15,2013-01-12 23:50:00,
2013-01-12 17:56:00,29.4,25.7,29.91,NNE,13,0.0,0.0,86,0.00,,,0.29,Wunderground v.1.15,2013-01-12 23:56:00,
2013-01-12 18:02:00,29.2,25.5,29.92,NNE,13,0.0,0.0,86,0.00,,,0.29,Wunderground v.1.15,2013-01-13 00:02:00,
2013-01-12 18:08:00,29.2,25.5,29.93,NNE,13,0.0,0.0,86,0.00,,,0.29,Wunderground v.1.15,2013-01-13 00:08:00,
2013-01-12 18:14:00,29.2,25.5,29.94,NNE,13,0.0,0.0,86,0.00,,,0.29,Wunderground v.1.15,2013-01-13 00:14:00,
2013-01-12 18:20:00,29.2,25.5,29.94,NNE,13,0.0,0.0,86,0.00,,,0.29,Wunderground v.1.15,2013-01-13 00:20:00,
2013-01-12 18:26:00,29.2,25.8,29.94,NNE,13,0.0,0.0,87,0.00,,,0.29,Wunderground v.1.15,2013-01-13 00:26:00,
2013-01-12 18:32:00,29.1,25.7,29.93,NNE,13,0.0,0.0,87,0.00,,,0.29,Wunderground v.1.15,2013-01-13 00:32:00,
2013-01-12 18:38:00,29.0,25.6,29.94,NNE,13,0.0,0.0,87,0.00,,,0.29,Wunderground v.1.15,2013-01-13 00:38:00,
2013-01-12 18:44:00,28.9,25.5,29.92,NNE,13,0.0,0.0,87,0.00,,,0.29,Wunderground v.1.15,2013-01-13 00:44:00,
2013-01-12 18:50:00,28.8,25.4,29.92,NNE,13,0.0,0.0,87,0.00,,,0.29,Wunderground v.1.15,2013-01-13 00:50:00,
2013-01-12 18:56:00,28.6,25.5,29.93,NNE,13,0.0,0.0,88,0.00,,,0.29,Wunderground v.1.15,2013-01-13 00:56:00,
2013-01-12 19:02:00,28.4,25.3,29.94,NNE,13,0.0,0.0,88,0.00,,,0.29,Wunderground v.1.15,2013-01-13 01:02:00,
2013-01-12 19:08:00,28.3,25.2,29.94,NNE,13,0.0,0.0,88,0.00,,,0.29,Wunderground v.1.15,2013-01-13 01:08:00,
2013-01-12 19:14:00,28.2,25.1,29.96,NNE,13,0.0,0.0,88,0.00,,,0.29,Wunderground v.1.15,2013-01-13 01:14:00,
2013-01-12 19:20:00,28.1,24.7,29.95,NNE,13,0.0,0.0,87,0.00,,,0.29,Wunderground v.1.15,2013-01-13 01:20:00,
2013-01-12 19:26:00,28.1,24.5,29.96,NNE,13,0.0,0.0,86,0.00,,,0.29,Wunderground v.1.15,2013-01-13 01:26:00,
2013-01-12 19:32:00,28.1,24.5,29.96,NNE,13,0.0,0.0,86,0.00,,,0.29,Wunderground v.1.15,2013-01-13 01:32:00,
2013-01-12 19:38:00,28.1,24.5,29.96,NNE,13,0.0,0.0,86,0.00,,,0.29,Wunderground v.1.15,2013-01-13 01:38:00,
2013-01-12 19:44:00,28.1,24.5,29.96,NNE,13,0.0,0.0,86,0.00,,,0.29,Wunderground v.1.15,2013-01-13 01:44:00,
2013-01-12 19:50:00,28.1,24.5,29.96,NNE,13,0.0,0.0,86,0.00,,,0.29,Wunderground v.1.15,2013-01-13 01:50:00,
2013-01-12 19:56:00,28.1,24.7,29.95,NNE,13,0.0,0.0,87,0.00,,,0.29,Wunderground v.1.15,2013-01-13 01:56:00,
2013-01-12 20:02:00,28.2,24.8,29.95,NNE,13,0.0,0.0,87,0.00,,,0.29,Wunderground v.1.15,2013-01-13 02:02:00,
2013-01-12 20:08:00,28.1,24.5,29.95,NNE,13,0.0,0.0,86,0.00,,,0.29,Wunderground v.1.15,2013-01-13 02:08:00,
2013-01-12 20:14:00,28.1,24.2,29.95,NNE,13,0.0,0.0,85,0.00,,,0.29,Wunderground v.1.15,2013-01-13 02:14:00,
2013-01-12 20:20:00,28.0,23.5,29.95,NNE,13,0.0,0.0,83,0.00,,,0.29,Wunderground v.1.15,2013-01-13 02:20:00,
2013-01-12 20:26:00,28.1,23.3,29.95,NNE,13,0.0,0.0,82,0.00,,,0.29,Wunderground v.1.15,2013-01-13 02:26:00,
2013-01-12 20:32:00,28.1,23.0,29.95,NNE,13,0.0,0.0,81,0.00,,,0.29,Wunderground v.1.15,2013-01-13 02:32:00,
2013-01-12 20:38:00,28.1,23.3,29.96,NNE,13,0.0,0.0,82,0.00,,,0.29,Wunderground v.1.15,2013-01-13 02:38:00,
2013-01-12 20:44:00,28.2,23.4,29.96,NNE,13,0.0,0.0,82,0.00,,,0.29,Wunderground v.1.15,2013-01-13 02:44:00,
2013-01-12 20:50:00,28.2,23.4,29.97,NNE,13,0.0,0.0,82,0.00,,,0.29,Wunderground v.1.15,2013-01-13 02:50:00,
2013-01-12 20:56:00,28.2,23.7,29.97,NNE,13,0.0,0.0,83,0.00,,,0.29,Wunderground v.1.15,2013-01-13 02:56:00,
2013-01-12 21:02:00,28.3,23.5,29.98,NNE,13,0.0,0.0,82,0.00,,,0.29,Wunderground v.1.15,2013-01-13 03:02:00,
2013-01-12 21:08:00,28.2,22.5,29.98,NNE,13,0.0,0.0,79,0.00,,,0.29,Wunderground v.1.15,2013-01-13 03:08:00,
2013-01-12 21:14:00,28.1,21.8,29.98,NNE,13,0.0,0.0,77,0.00,,,0.29,Wunderground v.1.15,2013-01-13 03:14:00,
2013-01-12 21:20:00,28.1,21.2,29.98,NNE,13,0.0,0.0,75,0.00,,,0.29,Wunderground v.1.15,2013-01-13 03:20:00,
2013-01-12 21:26:00,28.0,21.1,29.99,NNE,13,0.0,0.0,75,0.00,,,0.29,Wunderground v.1.15,2013-01-13 03:26:00,
2013-01-12 21:32:00,28.0,21.4,29.99,NNE,13,0.0,0.0,76,0.00,,,0.29,Wunderground v.1.15,2013-01-13 03:32:00,
2013-01-12 21:38:00,27.9,21.6,29.99,NNE,13,0.0,0.0,77,0.00,,,0.29,Wunderground v.1.15,2013-01-13 03:38:00,
2013-01-12 21:44:00,27.9,21.6,29.98,NNE,13,0.0,0.0,77,0.00,,,0.29,Wunderground v.1.15,2013-01-13 03:44:00,
2013-01-12 21:50:00,27.9,21.9,29.98,NNE,13,0.0,0.0,78,0.00,,,0.29,Wunderground v.1.15,2013-01-13 03:50:00,
2013-01-12 21:56:00,27.9,21.6,29.98,NNE,13,0.0,0.0,77,0.00,,,0.29,Wunderground v.1.15,2013-01-13 03:56:00,
2013-01-12 22:02:00,27.8,21.5,29.98,NNE,13,0.0,0.0,77,0.00,,,0.29,Wunderground v.1.15,2013-01-13 04:02:00,
2013-01-12 22:08:00,27.8,21.5,29.97,NNE,13,0.0,0.0,77,0.00,,,0.29,Wunderground v.1.15,2013-01-13 04:08:00,
2013-01-12 22:14:00,27.7,21.4,29.99,NNE,13,0.0,0.0,77,0.00,,,0.29,Wunderground v.1.15,2013-01-13 04:14:00,
2013-01-12 22:20:00,27.7,21.4,29.98,NNE,13,0.0,0.0,77,0.00,,,0.29,Wunderground v.1.15,2013-01-13 04:20:00,
2013-01-12 22:26:00,27.6,21.6,29.99,NNE,13,0.0,0.0,78,0.00,,,0.29,Wunderground v.1.15,2013-01-13 04:26:00,
2013-01-12 22:32:00,27.7,22.0,30.00,NNE,13,0.0,0.0,79,0.00,,,0.29,Wunderground v.1.15,2013-01-13 04:32:00,
2013-01-12 22:38:00,27.6,21.3,29.99,NNE,13,0.0,0.0,77,0.00,,,0.29,Wunderground v.1.15,2013-01-13 04:38:00,
2013-01-12 22:44:00,27.3,21.0,29.99,NNE,13,0.0,0.0,77,0.00,,,0.29,Wunderground v.1.15,2013-01-13 04:44:00,
2013-01-12 22:50:00,27.1,20.8,29.99,NNE,13,0.0,0.0,77,0.00,,,0.29,Wunderground v.1.15,2013-01-13 04:50:00,
2013-01-12 22:56:00,26.9,21.0,30.00,NNE,13,0.0,0.0,78,0.00,,,0.29,Wunderground v.1.15,2013-01-13 04:56:00,
2013-01-12 23:02:00,26.7,20.8,30.01,NNE,13,0.0,0.0,78,0.00,,,0.29,Wunderground v.1.15,2013-01-13 05:02:00,
2013-01-12 23:04:00,26.6,20.7,30.01,NNE,13,0.0,0.0,78,0.00,,,0.29,Wunderground v.1.15,2013-01-13 05:04:00,
2013-01-12 23:06:00,26.6,22.7,30.01,NNE,13,0.0,0.0,85,0.00,,,0.29,Wunderground v.1.15,2013-01-13 05:06:00,
2013-01-12 23:12:00,26.5,20.9,30.02,NNE,13,0.0,0.0,79,0.00,,,0.29,Wunderground v.1.15,2013-01-13 05:12:00,
2013-01-12 23:18:00,26.3,20.7,30.04,NNE,13,0.0,0.0,79,0.00,,,0.29,Wunderground v.1.15,2013-01-13 05:18:00,
2013-01-12 23:24:00,26.2,20.6,30.02,NNE,13,0.0,0.0,79,0.00,,,0.29,Wunderground v.1.15,2013-01-13 05:24:00,
2013-01-12 23:30:00,26.0,20.1,30.04,NNE,13,0.0,0.0,78,0.00,,,0.29,Wunderground v.1.15,2013-01-13 05:30:00,
2013-01-12 23:36:00,26.0,20.1,30.04,NNE,13,0.0,0.0,78,0.00,,,0.29,Wunderground v.1.15,2013-01-13 05:36:00,
2013-01-12 23:42:00,25.9,20.3,30.06,NNE,13,0.0,0.0,79,0.00,,,0.29,Wunderground v.1.15,2013-01-13 05:42:00,
2013-01-12 23:48:00,25.9,20.3,30.04,NNE,13,0.0,0.0,79,0.00,,,0.29,Wunderground v.1.15,2013-01-13 05:48:00,
2013-01-12 23:54:00,25.8,20.2,30.08,NNE,13,0.0,0.0,79,0.00,,,0.29,Wunderground v.1.15,2013-01-13 05:54:00,